sensor_id;sensor_type;location;lat;lon;timestamp;P1;durP1;ratioP1;P2;durP2;ratioP2
17449;SDS011;8842;51.244;7.102;2023-02-27T00:05:00;11.50;;;10.90;;
17449;SDS011;8842;51.244;7.102;2023-02-27T00:10:12;11.30;;;10.70;;
17449;SDS011;8842;51.244;7.102;2023-02-27T00:15:17;11.23;;;10.63;;
17449;SDS011;8842;51.244;7.102;2023-02-27T00:20:30;11.50;;;10.90;;
17449;SDS011;8842;51.244;7.102;2023-02-27T00:25:36;11.33;;;10.73;;
17449;SDS011;8842;51.244;7.102;2023-02-27T00:30:47;11.10;;;10.50;;
17449;SDS011;8842;51.244;7.102;2023-02-27T00:35:55;11.20;;;10.60;;
17449;SDS011;8842;51.244;7.102;2023-02-27T00:41:00;10.93;;;10.33;;
17449;SDS011;8842;51.244;7.102;2023-02-27T00:46:04;10.93;;;10.33;;
17449;SDS011;8842;51.244;7.102;2023-02-27T00:51:16;11.10;;;10.50;;
17449;SDS011;8842;51.244;7.102;2023-02-27T00:56:28;11.50;;;10.90;;
17449;SDS011;8842;51.244;7.102;2023-02-27T01:01:32;12.47;;;11.77;;
17449;SDS011;8842;51.244;7.102;2023-02-27T01:06:36;11.80;;;11.20;;
17449;SDS011;8842;51.244;7.102;2023-02-27T01:11:40;11.60;;;11.00;;
17449;SDS011;8842;51.244;7.102;2023-02-27T01:16:44;11.90;;;11.30;;
17449;SDS011;8842;51.244;7.102;2023-02-27T01:21:56;11.70;;;11.10;;
17449;SDS011;8842;51.244;7.102;2023-02-27T01:27:00;11.70;;;11.10;;
17449;SDS011;8842;51.244;7.102;2023-02-27T01:32:04;11.57;;;10.97;;
17449;SDS011;8842;51.244;7.102;2023-02-27T01:37:08;11.10;;;10.50;;
17449;SDS011;8842;51.244;7.102;2023-02-27T01:42:21;11.27;;;10.67;;
17449;SDS011;8842;51.244;7.102;2023-02-27T01:47:26;11.37;;;10.77;;
17449;SDS011;8842;51.244;7.102;2023-02-27T01:52:38;11.10;;;10.50;;
17449;SDS011;8842;51.244;7.102;2023-02-27T01:57:45;11.27;;;10.67;;
17449;SDS011;8842;51.244;7.102;2023-02-27T02:02:59;11.10;;;10.50;;
17449;SDS011;8842;51.244;7.102;2023-02-27T02:08:05;11.20;;;10.60;;
17449;SDS011;8842;51.244;7.102;2023-02-27T02:13:17;11.20;;;10.60;;
17449;SDS011;8842;51.244;7.102;2023-02-27T02:18:23;10.93;;;10.33;;
17449;SDS011;8842;51.244;7.102;2023-02-27T02:35:07;11.17;;;10.57;;
17449;SDS011;8842;51.244;7.102;2023-02-27T02:40:43;11.00;;;10.40;;
17449;SDS011;8842;51.244;7.102;2023-02-27T02:45:58;11.50;;;10.90;;
17449;SDS011;8842;51.244;7.102;2023-02-27T02:51:14;11.10;;;10.50;;
17449;SDS011;8842;51.244;7.102;2023-02-27T02:56:20;10.90;;;10.30;;
17449;SDS011;8842;51.244;7.102;2023-02-27T03:01:35;11.10;;;10.50;;
17449;SDS011;8842;51.244;7.102;2023-02-27T03:06:43;10.97;;;10.37;;
17449;SDS011;8842;51.244;7.102;2023-02-27T03:11:55;10.80;;;10.20;;
17449;SDS011;8842;51.244;7.102;2023-02-27T03:17:02;11.30;;;10.70;;
17449;SDS011;8842;51.244;7.102;2023-02-27T03:22:09;11.40;;;10.80;;
17449;SDS011;8842;51.244;7.102;2023-02-27T03:27:26;11.30;;;10.70;;
17449;SDS011;8842;51.244;7.102;2023-02-27T03:38:00;11.40;;;10.80;;
17449;SDS011;8842;51.244;7.102;2023-02-27T03:42:55;11.00;;;10.40;;
17449;SDS011;8842;51.244;7.102;2023-02-27T03:48:02;11.30;;;10.70;;
17449;SDS011;8842;51.244;7.102;2023-02-27T03:53:17;11.20;;;10.60;;
17449;SDS011;8842;51.244;7.102;2023-02-27T04:03:36;11.30;;;10.70;;
17449;SDS011;8842;51.244;7.102;2023-02-27T04:08:45;11.30;;;10.70;;
17449;SDS011;8842;51.244;7.102;2023-02-27T04:14:01;11.13;;;10.53;;
17449;SDS011;8842;51.244;7.102;2023-02-27T04:19:15;11.40;;;10.80;;
17449;SDS011;8842;51.244;7.102;2023-02-27T04:24:31;11.40;;;10.80;;
17449;SDS011;8842;51.244;7.102;2023-02-27T04:29:41;11.33;;;10.73;;
17449;SDS011;8842;51.244;7.102;2023-02-27T04:34:49;11.30;;;10.70;;
17449;SDS011;8842;51.244;7.102;2023-02-27T04:40:02;11.30;;;10.70;;
17449;SDS011;8842;51.244;7.102;2023-02-27T04:45:17;11.83;;;11.13;;
17449;SDS011;8842;51.244;7.102;2023-02-27T04:50:24;11.40;;;10.80;;
17449;SDS011;8842;51.244;7.102;2023-02-27T04:55:38;11.80;;;11.13;;
17449;SDS011;8842;51.244;7.102;2023-02-27T05:00:47;12.20;;;11.60;;
17449;SDS011;8842;51.244;7.102;2023-02-27T05:06:00;12.13;;;11.43;;
17449;SDS011;8842;51.244;7.102;2023-02-27T05:11:06;11.50;;;10.90;;
17449;SDS011;8842;51.244;7.102;2023-02-27T05:16:23;12.00;;;11.40;;
17449;SDS011;8842;51.244;7.102;2023-02-27T05:21:30;11.63;;;11.03;;
17449;SDS011;8842;51.244;7.102;2023-02-27T05:26:42;11.73;;;11.13;;
17449;SDS011;8842;51.244;7.102;2023-02-27T05:32:01;11.70;;;11.10;;
17449;SDS011;8842;51.244;7.102;2023-02-27T05:37:18;12.00;;;11.40;;
17449;SDS011;8842;51.244;7.102;2023-02-27T05:42:26;11.80;;;11.20;;
17449;SDS011;8842;51.244;7.102;2023-02-27T05:47:39;11.57;;;10.97;;
17449;SDS011;8842;51.244;7.102;2023-02-27T05:52:46;11.53;;;10.93;;
17449;SDS011;8842;51.244;7.102;2023-02-27T05:57:53;11.50;;;10.90;;
17449;SDS011;8842;51.244;7.102;2023-02-27T06:03:06;11.23;;;10.63;;
17449;SDS011;8842;51.244;7.102;2023-02-27T06:08:10;11.77;;;11.07;;
17449;SDS011;8842;51.244;7.102;2023-02-27T06:13:22;11.40;;;10.80;;
17449;SDS011;8842;51.244;7.102;2023-02-27T06:18:27;11.30;;;10.70;;
17449;SDS011;8842;51.244;7.102;2023-02-27T06:23:39;11.67;;;11.07;;
17449;SDS011;8842;51.244;7.102;2023-02-27T06:28:43;11.80;;;11.20;;
17449;SDS011;8842;51.244;7.102;2023-02-27T06:33:55;11.50;;;10.90;;
17449;SDS011;8842;51.244;7.102;2023-02-27T06:38:59;11.60;;;11.00;;
17449;SDS011;8842;51.244;7.102;2023-02-27T06:44:03;11.97;;;11.37;;
17449;SDS011;8842;51.244;7.102;2023-02-27T06:49:15;11.50;;;10.90;;
17449;SDS011;8842;51.244;7.102;2023-02-27T06:54:20;11.70;;;11.10;;
17449;SDS011;8842;51.244;7.102;2023-02-27T06:59:32;12.20;;;11.50;;
17449;SDS011;8842;51.244;7.102;2023-02-27T07:04:36;12.90;;;12.20;;
17449;SDS011;8842;51.244;7.102;2023-02-27T07:09:40;11.63;;;11.03;;
17449;SDS011;8842;51.244;7.102;2023-02-27T07:14:52;12.17;;;11.47;;
17449;SDS011;8842;51.244;7.102;2023-02-27T07:19:56;12.20;;;11.40;;
17449;SDS011;8842;51.244;7.102;2023-02-27T07:25:08;12.27;;;11.47;;
17449;SDS011;8842;51.244;7.102;2023-02-27T07:30:13;12.93;;;12.13;;
17449;SDS011;8842;51.244;7.102;2023-02-27T07:35:25;11.93;;;11.23;;
17449;SDS011;8842;51.244;7.102;2023-02-27T07:40:30;11.07;;;10.47;;
17449;SDS011;8842;51.244;7.102;2023-02-27T07:45:41;12.73;;;11.93;;
17449;SDS011;8842;51.244;7.102;2023-02-27T07:50:53;11.63;;;11.03;;
17449;SDS011;8842;51.244;7.102;2023-02-27T07:55:57;11.40;;;10.80;;
17449;SDS011;8842;51.244;7.102;2023-02-27T08:01:09;12.80;;;12.10;;
17449;SDS011;8842;51.244;7.102;2023-02-27T08:06:13;12.30;;;11.60;;
17449;SDS011;8842;51.244;7.102;2023-02-27T08:16:35;13.33;;;12.33;;
17449;SDS011;8842;51.244;7.102;2023-02-27T08:21:40;12.60;;;11.90;;
17449;SDS011;8842;51.244;7.102;2023-02-27T08:26:51;13.80;;;12.83;;
17449;SDS011;8842;51.244;7.102;2023-02-27T08:31:55;13.47;;;12.63;;
17449;SDS011;8842;51.244;7.102;2023-02-27T08:37:00;11.23;;;10.63;;
17449;SDS011;8842;51.244;7.102;2023-02-27T08:42:04;11.50;;;10.90;;
17449;SDS011;8842;51.244;7.102;2023-02-27T08:47:21;13.27;;;12.47;;
17449;SDS011;8842;51.244;7.102;2023-02-27T08:52:33;13.50;;;12.60;;
17449;SDS011;8842;51.244;7.102;2023-02-27T08:57:37;12.93;;;12.20;;
17449;SDS011;8842;51.244;7.102;2023-02-27T09:02:41;12.47;;;11.63;;
17449;SDS011;8842;51.244;7.102;2023-02-27T09:07:46;11.60;;;10.90;;
17449;SDS011;8842;51.244;7.102;2023-02-27T09:12:58;11.60;;;10.90;;
17449;SDS011;8842;51.244;7.102;2023-02-27T09:18:03;11.60;;;11.00;;
17449;SDS011;8842;51.244;7.102;2023-02-27T09:23:15;12.23;;;11.63;;
17449;SDS011;8842;51.244;7.102;2023-02-27T09:28:19;13.57;;;12.57;;
17449;SDS011;8842;51.244;7.102;2023-02-27T09:33:25;11.90;;;11.30;;
17449;SDS011;8842;51.244;7.102;2023-02-27T09:38:30;12.20;;;11.60;;
17449;SDS011;8842;51.244;7.102;2023-02-27T09:43:43;12.33;;;11.63;;
17449;SDS011;8842;51.244;7.102;2023-02-27T09:48:50;13.00;;;12.30;;
17449;SDS011;8842;51.244;7.102;2023-02-27T09:54:03;12.17;;;11.47;;
17449;SDS011;8842;51.244;7.102;2023-02-27T09:59:11;12.47;;;11.77;;
17449;SDS011;8842;51.244;7.102;2023-02-27T10:04:39;12.90;;;12.20;;
17449;SDS011;8842;51.244;7.102;2023-02-27T10:09:52;12.83;;;12.03;;
17449;SDS011;8842;51.244;7.102;2023-02-27T10:15:08;12.37;;;11.73;;
17449;SDS011;8842;51.244;7.102;2023-02-27T10:20:18;12.80;;;12.10;;
17449;SDS011;8842;51.244;7.102;2023-02-27T10:30:35;13.50;;;12.67;;
17449;SDS011;8842;51.244;7.102;2023-02-27T10:35:42;13.20;;;12.30;;
17449;SDS011;8842;51.244;7.102;2023-02-27T10:40:55;13.17;;;12.47;;
17449;SDS011;8842;51.244;7.102;2023-02-27T10:46:01;13.30;;;12.50;;
17449;SDS011;8842;51.244;7.102;2023-02-27T10:51:22;12.80;;;12.10;;
17449;SDS011;8842;51.244;7.102;2023-02-27T11:01:42;12.50;;;11.80;;
17449;SDS011;8842;51.244;7.102;2023-02-27T11:06:50;12.07;;;11.47;;
17449;SDS011;8842;51.244;7.102;2023-02-27T11:12:16;12.80;;;12.00;;
17449;SDS011;8842;51.244;7.102;2023-02-27T11:17:24;12.23;;;11.63;;
17449;SDS011;8842;51.244;7.102;2023-02-27T11:22:36;12.00;;;11.30;;
17449;SDS011;8842;51.244;7.102;2023-02-27T11:27:43;11.53;;;10.93;;
17449;SDS011;8842;51.244;7.102;2023-02-27T11:32:55;12.70;;;12.00;;
17449;SDS011;8842;51.244;7.102;2023-02-27T11:38:02;12.57;;;11.87;;
17449;SDS011;8842;51.244;7.102;2023-02-27T11:43:14;12.77;;;12.03;;
17449;SDS011;8842;51.244;7.102;2023-02-27T11:48:30;12.63;;;11.93;;
17449;SDS011;8842;51.244;7.102;2023-02-27T11:53:40;13.60;;;12.33;;
17449;SDS011;8842;51.244;7.102;2023-02-27T12:04:40;12.50;;;11.80;;
17449;SDS011;8842;51.244;7.102;2023-02-27T12:09:54;12.70;;;12.00;;
17449;SDS011;8842;51.244;7.102;2023-02-27T12:15:04;13.10;;;12.30;;
17449;SDS011;8842;51.244;7.102;2023-02-27T12:25:46;11.90;;;11.30;;
17449;SDS011;8842;51.244;7.102;2023-02-27T12:30:59;13.20;;;12.50;;
17449;SDS011;8842;51.244;7.102;2023-02-27T12:36:12;12.70;;;12.00;;
17449;SDS011;8842;51.244;7.102;2023-02-27T12:41:32;13.10;;;12.40;;
17449;SDS011;8842;51.244;7.102;2023-02-27T12:46:43;12.90;;;12.20;;
17449;SDS011;8842;51.244;7.102;2023-02-27T12:51:53;13.60;;;12.60;;
17449;SDS011;8842;51.244;7.102;2023-02-27T12:57:05;13.47;;;12.73;;
17449;SDS011;8842;51.244;7.102;2023-02-27T13:02:23;12.30;;;11.60;;
17449;SDS011;8842;51.244;7.102;2023-02-27T13:07:45;13.07;;;12.37;;
17449;SDS011;8842;51.244;7.102;2023-02-27T13:12:59;12.67;;;11.97;;
17449;SDS011;8842;51.244;7.102;2023-02-27T13:18:07;12.63;;;11.93;;
17449;SDS011;8842;51.244;7.102;2023-02-27T13:23:17;12.20;;;11.60;;
17449;SDS011;8842;51.244;7.102;2023-02-27T13:28:30;12.57;;;11.87;;
17449;SDS011;8842;51.244;7.102;2023-02-27T13:33:36;12.60;;;11.90;;
17449;SDS011;8842;51.244;7.102;2023-02-27T13:38:43;13.07;;;12.37;;
17449;SDS011;8842;51.244;7.102;2023-02-27T13:43:55;13.87;;;12.50;;
17449;SDS011;8842;51.244;7.102;2023-02-27T13:49:20;13.07;;;12.37;;
17449;SDS011;8842;51.244;7.102;2023-02-27T13:54:33;13.03;;;12.33;;
17449;SDS011;8842;51.244;7.102;2023-02-27T13:59:45;12.87;;;12.17;;
17449;SDS011;8842;51.244;7.102;2023-02-27T14:04:54;14.00;;;13.20;;
17449;SDS011;8842;51.244;7.102;2023-02-27T14:10:02;14.30;;;13.50;;
17449;SDS011;8842;51.244;7.102;2023-02-27T14:20:53;14.37;;;13.03;;
17449;SDS011;8842;51.244;7.102;2023-02-27T14:25:58;13.30;;;12.60;;
17449;SDS011;8842;51.244;7.102;2023-02-27T14:31:21;13.67;;;12.57;;
17449;SDS011;8842;51.244;7.102;2023-02-27T14:36:23;13.00;;;12.30;;
17449;SDS011;8842;51.244;7.102;2023-02-27T14:41:37;12.30;;;11.70;;
17449;SDS011;8842;51.244;7.102;2023-02-27T14:52:09;13.33;;;12.53;;
17449;SDS011;8842;51.244;7.102;2023-02-27T14:57:15;13.60;;;12.90;;
17449;SDS011;8842;51.244;7.102;2023-02-27T15:02:28;12.80;;;12.10;;
17449;SDS011;8842;51.244;7.102;2023-02-27T15:07:35;12.87;;;12.17;;
17449;SDS011;8842;51.244;7.102;2023-02-27T15:12:41;12.67;;;11.97;;
17449;SDS011;8842;51.244;7.102;2023-02-27T15:17:46;12.97;;;12.27;;
17449;SDS011;8842;51.244;7.102;2023-02-27T15:22:58;12.83;;;12.13;;
17449;SDS011;8842;51.244;7.102;2023-02-27T15:28:05;10.90;;;10.30;;
17449;SDS011;8842;51.244;7.102;2023-02-27T15:33:17;11.70;;;11.10;;
17449;SDS011;8842;51.244;7.102;2023-02-27T15:38:32;12.03;;;11.40;;
17449;SDS011;8842;51.244;7.102;2023-02-27T15:43:39;12.00;;;11.40;;
17449;SDS011;8842;51.244;7.102;2023-02-27T15:48:44;10.60;;;10.10;;
17449;SDS011;8842;51.244;7.102;2023-02-27T15:53:59;11.80;;;11.20;;
17449;SDS011;8842;51.244;7.102;2023-02-27T15:59:05;11.87;;;11.27;;
17449;SDS011;8842;51.244;7.102;2023-02-27T16:04:24;11.90;;;11.30;;
17449;SDS011;8842;51.244;7.102;2023-02-27T16:09:29;12.10;;;11.50;;
17449;SDS011;8842;51.244;7.102;2023-02-27T16:14:36;12.20;;;11.50;;
17449;SDS011;8842;51.244;7.102;2023-02-27T16:19:42;12.70;;;12.00;;
17449;SDS011;8842;51.244;7.102;2023-02-27T16:24:48;12.60;;;11.70;;
17449;SDS011;8842;51.244;7.102;2023-02-27T16:30:00;12.20;;;11.60;;
17449;SDS011;8842;51.244;7.102;2023-02-27T16:35:07;12.10;;;11.50;;
17449;SDS011;8842;51.244;7.102;2023-02-27T16:40:25;12.30;;;11.70;;
17449;SDS011;8842;51.244;7.102;2023-02-27T16:45:30;12.27;;;11.67;;
17449;SDS011;8842;51.244;7.102;2023-02-27T16:50:37;12.00;;;11.30;;
17449;SDS011;8842;51.244;7.102;2023-02-27T16:55:48;12.20;;;11.60;;
17449;SDS011;8842;51.244;7.102;2023-02-27T17:00:52;11.37;;;10.77;;
17449;SDS011;8842;51.244;7.102;2023-02-27T17:06:04;11.37;;;10.77;;
17449;SDS011;8842;51.244;7.102;2023-02-27T17:11:09;11.60;;;11.00;;
17449;SDS011;8842;51.244;7.102;2023-02-27T17:16:14;11.60;;;11.00;;
17449;SDS011;8842;51.244;7.102;2023-02-27T17:21:18;11.10;;;10.50;;
17449;SDS011;8842;51.244;7.102;2023-02-27T17:26:29;11.93;;;11.33;;
17449;SDS011;8842;51.244;7.102;2023-02-27T17:31:33;11.60;;;11.00;;
17449;SDS011;8842;51.244;7.102;2023-02-27T17:36:46;11.70;;;11.10;;
17449;SDS011;8842;51.244;7.102;2023-02-27T17:41:50;11.90;;;11.30;;
17449;SDS011;8842;51.244;7.102;2023-02-27T17:47:02;11.60;;;11.00;;
17449;SDS011;8842;51.244;7.102;2023-02-27T17:52:06;11.47;;;10.87;;
17449;SDS011;8842;51.244;7.102;2023-02-27T17:57:11;11.20;;;10.60;;
17449;SDS011;8842;51.244;7.102;2023-02-27T18:02:22;11.20;;;10.60;;
17449;SDS011;8842;51.244;7.102;2023-02-27T18:07:26;11.40;;;10.80;;
17449;SDS011;8842;51.244;7.102;2023-02-27T18:12:30;11.60;;;11.00;;
17449;SDS011;8842;51.244;7.102;2023-02-27T18:17:35;11.47;;;10.87;;
17449;SDS011;8842;51.244;7.102;2023-02-27T18:22:39;10.43;;;9.93;;
17449;SDS011;8842;51.244;7.102;2023-02-27T18:27:43;11.10;;;10.50;;
17449;SDS011;8842;51.244;7.102;2023-02-27T18:32:55;11.20;;;10.60;;
17449;SDS011;8842;51.244;7.102;2023-02-27T18:37:59;11.23;;;10.63;;
17449;SDS011;8842;51.244;7.102;2023-02-27T18:43:11;11.53;;;10.93;;
17449;SDS011;8842;51.244;7.102;2023-02-27T18:48:15;11.07;;;10.47;;
17449;SDS011;8842;51.244;7.102;2023-02-27T18:53:19;11.37;;;10.77;;
17449;SDS011;8842;51.244;7.102;2023-02-27T18:58:23;10.80;;;10.20;;
17449;SDS011;8842;51.244;7.102;2023-02-27T19:03:28;10.80;;;10.20;;
17449;SDS011;8842;51.244;7.102;2023-02-27T19:08:32;10.80;;;10.20;;
17449;SDS011;8842;51.244;7.102;2023-02-27T19:13:36;11.03;;;10.43;;
17449;SDS011;8842;51.244;7.102;2023-02-27T19:18:48;11.30;;;10.70;;
17449;SDS011;8842;51.244;7.102;2023-02-27T19:23:52;11.43;;;10.83;;
17449;SDS011;8842;51.244;7.102;2023-02-27T19:29:04;11.50;;;10.90;;
17449;SDS011;8842;51.244;7.102;2023-02-27T19:34:08;11.30;;;10.70;;
17449;SDS011;8842;51.244;7.102;2023-02-27T19:44:24;11.50;;;10.90;;
17449;SDS011;8842;51.244;7.102;2023-02-27T19:49:28;11.50;;;10.90;;
17449;SDS011;8842;51.244;7.102;2023-02-27T19:54:32;11.50;;;10.90;;
17449;SDS011;8842;51.244;7.102;2023-02-27T19:59:44;11.70;;;11.10;;
17449;SDS011;8842;51.244;7.102;2023-02-27T20:04:48;11.50;;;10.90;;
17449;SDS011;8842;51.244;7.102;2023-02-27T20:09:52;11.97;;;11.37;;
17449;SDS011;8842;51.244;7.102;2023-02-27T20:14:56;11.33;;;10.73;;
17449;SDS011;8842;51.244;7.102;2023-02-27T20:20:01;11.43;;;10.83;;
17449;SDS011;8842;51.244;7.102;2023-02-27T20:25:07;11.87;;;11.20;;
17449;SDS011;8842;51.244;7.102;2023-02-27T20:30:12;13.33;;;12.00;;
17449;SDS011;8842;51.244;7.102;2023-02-27T20:35:17;11.40;;;10.80;;
17449;SDS011;8842;51.244;7.102;2023-02-27T20:40:21;12.00;;;11.40;;
17449;SDS011;8842;51.244;7.102;2023-02-27T20:45:27;11.90;;;11.30;;
17449;SDS011;8842;51.244;7.102;2023-02-27T20:50:32;12.00;;;11.40;;
17449;SDS011;8842;51.244;7.102;2023-02-27T20:55:36;11.73;;;11.13;;
17449;SDS011;8842;51.244;7.102;2023-02-27T21:00:42;11.50;;;10.90;;
17449;SDS011;8842;51.244;7.102;2023-02-27T21:05:46;12.10;;;11.50;;
17449;SDS011;8842;51.244;7.102;2023-02-27T21:10:51;12.23;;;11.53;;
17449;SDS011;8842;51.244;7.102;2023-02-27T21:15:55;11.40;;;10.80;;
17449;SDS011;8842;51.244;7.102;2023-02-27T21:21:11;11.50;;;10.90;;
17449;SDS011;8842;51.244;7.102;2023-02-27T21:26:18;11.10;;;10.50;;
17449;SDS011;8842;51.244;7.102;2023-02-27T21:31:25;11.50;;;10.90;;
17449;SDS011;8842;51.244;7.102;2023-02-27T21:36:32;11.20;;;10.60;;
17449;SDS011;8842;51.244;7.102;2023-02-27T21:41:37;11.50;;;10.90;;
17449;SDS011;8842;51.244;7.102;2023-02-27T21:46:41;11.00;;;10.40;;
17449;SDS011;8842;51.244;7.102;2023-02-27T21:51:47;10.90;;;10.30;;
17449;SDS011;8842;51.244;7.102;2023-02-27T21:56:58;11.07;;;10.47;;
17449;SDS011;8842;51.244;7.102;2023-02-27T22:02:04;11.10;;;10.50;;
17449;SDS011;8842;51.244;7.102;2023-02-27T22:07:08;10.47;;;9.97;;
17449;SDS011;8842;51.244;7.102;2023-02-27T22:12:12;11.53;;;10.83;;
17449;SDS011;8842;51.244;7.102;2023-02-27T22:17:16;11.10;;;10.50;;
17449;SDS011;8842;51.244;7.102;2023-02-27T22:22:20;10.40;;;9.90;;
17449;SDS011;8842;51.244;7.102;2023-02-27T22:27:32;10.80;;;10.20;;
17449;SDS011;8842;51.244;7.102;2023-02-27T22:32:37;10.87;;;10.27;;
17449;SDS011;8842;51.244;7.102;2023-02-27T22:37:41;10.90;;;10.30;;
17449;SDS011;8842;51.244;7.102;2023-02-27T22:42:53;10.83;;;10.23;;
17449;SDS011;8842;51.244;7.102;2023-02-27T22:47:57;10.80;;;10.20;;
17449;SDS011;8842;51.244;7.102;2023-02-27T22:53:01;10.70;;;10.10;;
17449;SDS011;8842;51.244;7.102;2023-02-27T22:58:05;9.90;;;9.40;;
17449;SDS011;8842;51.244;7.102;2023-02-27T23:03:17;11.00;;;10.40;;
17449;SDS011;8842;51.244;7.102;2023-02-27T23:08:21;10.37;;;9.87;;
17449;SDS011;8842;51.244;7.102;2023-02-27T23:13:35;10.70;;;10.10;;
17449;SDS011;8842;51.244;7.102;2023-02-27T23:18:40;11.23;;;10.33;;
17449;SDS011;8842;51.244;7.102;2023-02-27T23:23:47;10.13;;;9.63;;
17449;SDS011;8842;51.244;7.102;2023-02-27T23:28:51;10.33;;;9.83;;
17449;SDS011;8842;51.244;7.102;2023-02-27T23:33:55;10.50;;;10.00;;
17449;SDS011;8842;51.244;7.102;2023-02-27T23:38:59;10.30;;;9.80;;
17449;SDS011;8842;51.244;7.102;2023-02-27T23:44:10;10.50;;;9.97;;
17449;SDS011;8842;51.244;7.102;2023-02-27T23:49:14;10.60;;;10.07;;
17449;SDS011;8842;51.244;7.102;2023-02-27T23:54:18;10.30;;;9.80;;
17449;SDS011;8842;51.244;7.102;2023-02-27T23:59:22;9.70;;;9.20;;
